Time;durP1;ratioP1;P1;durP2;ratioP2;P2;SDS_P1;SDS_P2;PMS_P1;PMS_P2;Temp;Humidity;BMP_temperature;BMP_pressure;BME280_temperature;BME280_humidity;BME280_pressure;Samples;Min_cycle;Max_cycle;Signal;HPM_P1;HPM_P2
2022/12/15 00:38:55;;;;;;;;;;;;;;;-9.18;100.00;100516.69;5014432;28;19928;-88
2022/12/15 00:41:20;;;;;;;;;;;;;;;-9.14;100.00;100520.19;5012774;28;19921;-88
2022/12/15 00:43:45;;;;;;;;;;;;;;;-9.08;100.00;100521.19;5023968;28;19925;-88
2022/12/15 00:48:55;;;;;;;;;;;;;;;-8.89;100.00;100519.91;5012958;28;19959;-87
2022/12/15 00:51:20;;;;;;;;;;;;;;;-8.84;100.00;100528.63;5013578;28;19956;-88
2022/12/15 01:21:08;;;;;;;;;;;;;;;-8.42;100.00;100532.09;5016204;28;19920;-88
2022/12/15 01:23:33;;;;;;;;;;;;;;;-8.40;100.00;100536.47;5012922;28;20084;-88
2022/12/15 01:25:59;;;;;;;;;;;;;;;-8.38;100.00;100531.31;5013869;28;19979;-89
2022/12/15 01:28:24;;;;;;;;;;;;;;;-8.38;100.00;100526.16;5029014;28;20441;-87
2022/12/15 01:30:50;;;;;;;;;;;;;;;-8.39;100.00;100537.34;5036492;28;19919;-89
2022/12/15 01:33:15;;;;;;;;;;;;;;;-8.39;100.00;100527.88;5034921;28;19913;-89
2022/12/15 01:35:40;;;;;;;;;;;;;;;-8.42;100.00;100532.09;5027176;28;20470;-89
2022/12/15 01:38:06;;;;;;;;;;;;;;;-8.50;100.00;100529.34;5025781;28;19921;-88
2022/12/15 01:40:48;;;;;;;;;;;;;;;-8.58;100.00;100529.19;5033687;28;20012;-88
2022/12/15 01:43:18;;;;;;;;;;;;;;;-8.63;100.00;100535.09;5036541;28;19905;-88
2022/12/15 01:45:46;;;;;;;;;;;;;;;-8.63;100.00;100535.09;5030046;28;19924;-89
2022/12/15 01:48:13;;;;;;;;;;;;;;;-8.62;100.00;100537.69;5023173;28;19917;-88
2022/12/15 01:50:42;;;;;;;;;;;;;;;-8.58;100.00;100538.63;5024861;28;19925;-87
2022/12/15 01:53:09;;;;;;;;;;;;;;;-8.55;100.00;100544.75;5017579;28;20061;-88
2022/12/15 01:55:35;;;;;;;;;;;;;;;-8.53;100.00;100547.34;5029647;28;20301;-87
2022/12/15 01:58:02;;;;;;;;;;;;;;;-8.54;100.00;100550.78;5020411;28;19921;-87
2022/12/15 02:00:29;;;;;;;;;;;;;;;-8.54;100.00;100559.38;5018189;28;19918;-88
2022/12/15 02:02:55;;;;;;;;;;;;;;;-8.50;100.00;100554.28;5021640;28;19968;-88
2022/12/15 02:05:20;;;;;;;;;;;;;;;-8.48;100.00;100553.50;5017392;28;19925;-89
2022/12/15 02:07:45;;;;;;;;;;;;;;;-8.45;100.00;100563.88;5012494;28;19926;-88
2022/12/15 02:10:11;;;;;;;;;;;;;;;-8.43;100.00;100569.09;5018068;28;20008;-89
2022/12/15 02:12:45;;;;;;;;;;;;;;;-8.45;100.00;100573.31;5017048;28;20032;-89
2022/12/15 02:15:19;;;;;;;;;;;;;;;-8.49;100.00;100569.81;4998006;28;19940;-89
2022/12/15 02:18:00;;;;;;;;;;;;;;;-8.54;100.00;100572.28;5004142;28;19944;-90
2022/12/15 02:21:01;;;;;;;;;;;;;;;-8.58;100.00;100580.78;5024699;28;19924;-88
2022/12/15 02:23:32;;;;;;;;;;;;;;;-8.64;100.00;100578.09;5008924;28;19917;-90
2022/12/15 02:26:16;;;;;;;;;;;;;;;-8.68;100.00;100589.19;4997028;28;19917;-89
2022/12/15 02:28:51;;;;;;;;;;;;;;;-8.66;100.00;100589.22;4992906;28;19922;-88
2022/12/15 02:34:13;;;;;;;;;;;;;;;-8.64;100.00;100583.25;5008531;28;19940;-90
2022/12/15 02:36:41;;;;;;;;;;;;;;;-8.62;100.00;100591.88;4996719;28;20004;-88
2022/12/15 02:39:06;;;;;;;;;;;;;;;-8.54;100.00;100594.66;5000756;28;19941;-89
2022/12/15 02:41:39;;;;;;;;;;;;;;;-8.49;100.00;100590.44;5007071;28;19917;-89
2022/12/15 02:44:08;;;;;;;;;;;;;;;-8.46;100.00;100602.56;5011754;28;20366;-90
2022/12/15 02:46:50;;;;;;;;;;;;;;;-8.42;100.00;100594.91;5007033;28;19925;-89
2022/12/15 02:49:22;;;;;;;;;;;;;;;-8.37;100.00;100600.16;5000733;28;19918;-89
2022/12/15 02:51:57;;;;;;;;;;;;;;;-8.41;100.00;100590.63;4992876;28;19932;-87
2022/12/15 02:54:46;;;;;;;;;;;;;;;-8.33;100.00;100597.66;4992415;28;20033;-87
2022/12/15 02:57:21;;;;;;;;;;;;;;;-8.34;100.00;100585.59;4999509;28;19921;-89
2022/12/15 02:59:54;;;;;;;;;;;;;;;-8.35;100.00;100586.44;5012262;28;19933;-88
2022/12/15 03:02:21;;;;;;;;;;;;;;;-8.36;100.00;100595.03;5019089;28;19928;-89
2022/12/15 03:04:46;;;;;;;;;;;;;;;-8.39;100.00;100589.81;5020513;28;19922;-88
2022/12/15 03:07:12;;;;;;;;;;;;;;;-8.41;100.00;100593.19;5017924;28;19936;-90
2022/12/15 03:09:37;;;;;;;;;;;;;;;-8.43;100.00;100594.91;5020166;28;19925;-89
2022/12/15 03:12:03;;;;;;;;;;;;;;;-8.43;100.00;100600.91;5017288;28;19999;-89
2022/12/15 03:14:28;;;;;;;;;;;;;;;-8.39;100.00;100601.88;5020296;28;19909;-87
2022/12/15 03:16:54;;;;;;;;;;;;;;;-8.38;100.00;100598.44;5025098;28;19925;-88
2022/12/15 03:19:19;;;;;;;;;;;;;;;-8.37;100.00;100605.34;5020220;28;19929;-88
2022/12/15 03:21:44;;;;;;;;;;;;;;;-8.37;100.00;100602.75;5014932;28;19902;-88
2022/12/15 03:24:10;;;;;;;;;;;;;;;-8.37;100.00;100602.75;5018163;28;19909;-87
2022/12/15 03:26:35;;;;;;;;;;;;;;;-8.36;100.00;100607.03;5019078;28;20040;-89
2022/12/15 03:29:00;;;;;;;;;;;;;;;-8.37;100.00;100600.16;5020639;28;19936;-88
2022/12/15 03:31:26;;;;;;;;;;;;;;;-8.33;100.00;100607.13;5035346;28;19921;-88
2022/12/15 03:33:51;;;;;;;;;;;;;;;-8.32;100.00;100603.69;5021258;28;19924;-89
2022/12/15 03:36:16;;;;;;;;;;;;;;;-8.32;100.00;100609.75;5032934;28;19982;-89
2022/12/15 03:38:41;;;;;;;;;;;;;;;-8.33;100.00;100613.16;5026971;28;19967;-90
2022/12/15 03:41:07;;;;;;;;;;;;;;;-8.32;100.00;100609.75;5025958;28;19947;-88
2022/12/15 03:43:32;;;;;;;;;;;;;;;-8.38;100.00;100601.88;5032687;28;20465;-89
2022/12/15 03:45:57;;;;;;;;;;;;;;;-8.39;100.00;100605.31;5038942;28;19932;-89
2022/12/15 03:48:22;;;;;;;;;;;;;;;-8.33;100.00;100609.69;5020038;28;19913;-88
2022/12/15 03:50:48;;;;;;;;;;;;;;;-8.37;100.00;100611.38;5041614;28;19919;-88
2022/12/15 03:53:14;;;;;;;;;;;;;;;-8.37;100.00;100610.50;5030499;28;20012;-89
2022/12/15 03:55:39;;;;;;;;;;;;;;;-8.40;100.00;100611.31;5015681;28;19917;-88
2022/12/15 03:58:04;;;;;;;;;;;;;;;-8.38;100.00;100611.34;5020412;28;19921;-88
2022/12/15 04:00:29;;;;;;;;;;;;;;;-8.38;100.00;100611.34;5021950;28;20286;-88
2022/12/15 04:02:54;;;;;;;;;;;;;;;-8.40;100.00;100608.75;5013966;28;19941;-88
2022/12/15 04:05:21;;;;;;;;;;;;;;;-8.44;100.00;100608.59;5017266;28;19918;-89
2022/12/15 04:07:47;;;;;;;;;;;;;;;-8.48;100.00;100609.38;5017494;28;19913;-88
2022/12/15 04:10:12;;;;;;;;;;;;;;;-8.55;100.00;100604.09;5017633;28;20389;-90
2022/12/15 04:12:38;;;;;;;;;;;;;;;-8.58;100.00;100598.84;5021539;28;19921;-88
2022/12/15 04:15:04;;;;;;;;;;;;;;;-8.57;100.00;100599.72;5023490;28;19921;-88
2022/12/15 04:17:29;;;;;;;;;;;;;;;-8.58;100.00;100605.72;5016314;28;19928;-87
2022/12/15 04:20:10;;;;;;;;;;;;;;;-8.63;100.00;100600.47;5033231;28;19917;-89
2022/12/15 04:22:39;;;;;;;;;;;;;;;-8.68;100.00;100604.66;5020159;28;19979;-89
2022/12/15 05:33:26;;;;;;;;;;;;;;;-8.69;100.00;100658.78;5012125;28;19924;-88
2022/12/15 05:35:54;;;;;;;;;;;;;;;-8.66;100.00;100662.31;5006689;28;19918;-90
2022/12/15 05:38:19;;;;;;;;;;;;;;;-8.65;100.00;100666.66;5006841;28;20045;-89
2022/12/15 05:40:45;;;;;;;;;;;;;;;-8.65;100.00;100669.25;5010133;28;19921;-90
2022/12/15 05:43:10;;;;;;;;;;;;;;;-8.64;100.00;100668.41;5013376;28;20385;-89
2022/12/15 05:45:35;;;;;;;;;;;;;;;-8.61;100.00;100668.47;5016006;28;19973;-89
2022/12/15 05:48:00;;;;;;;;;;;;;;;-8.60;100.00;100671.94;5015590;28;19939;-90
2022/12/15 05:50:26;;;;;;;;;;;;;;;-8.59;100.00;100671.97;5016511;28;19925;-88
2022/12/15 05:52:51;;;;;;;;;;;;;;;-8.58;100.00;100671.09;5020913;28;20259;-89
2022/12/15 05:55:17;;;;;;;;;;;;;;;-8.58;100.00;100670.25;5031341;28;19925;-89
2022/12/15 05:57:43;;;;;;;;;;;;;;;-8.61;100.00;100676.22;5018416;28;19917;-89
2022/12/15 06:00:08;;;;;;;;;;;;;;;-8.61;100.00;100672.75;5011703;28;20461;-88
2022/12/15 06:02:33;;;;;;;;;;;;;;;-8.61;100.00;100676.22;5013657;28;19917;-87
2022/12/15 06:04:59;;;;;;;;;;;;;;;-8.62;100.00;100674.44;5014688;28;19917;-88
2022/12/15 06:07:24;;;;;;;;;;;;;;;-8.59;100.00;100668.50;5020675;28;19928;-88
2022/12/15 06:09:49;;;;;;;;;;;;;;;-8.55;100.00;100675.47;5019405;28;19943;-87
2022/12/15 06:12:14;;;;;;;;;;;;;;;-8.55;100.00;100670.31;5032790;28;19924;-88
2022/12/15 06:14:39;;;;;;;;;;;;;;;-8.58;100.00;100671.09;5000399;28;19917;-88
2022/12/15 06:17:05;;;;;;;;;;;;;;;-8.61;100.00;100663.31;5026240;28;19953;-88
2022/12/15 06:19:30;;;;;;;;;;;;;;;-8.64;100.00;100670.97;5032779;28;19921;-88
2022/12/15 06:21:55;;;;;;;;;;;;;;;-8.69;100.00;100675.16;5030758;28;19913;-89
2022/12/15 06:24:20;;;;;;;;;;;;;;;-8.72;100.00;100675.09;5030624;28;19920;-89
2022/12/15 06:26:46;;;;;;;;;;;;;;;-8.76;100.00;100675.84;5022327;28;19921;-89
2022/12/15 06:29:12;;;;;;;;;;;;;;;-8.77;100.00;100686.13;5021268;28;20074;-88
2022/12/15 06:31:37;;;;;;;;;;;;;;;-8.79;100.00;100691.25;5021495;28;19928;-87
2022/12/15 06:34:05;;;;;;;;;;;;;;;-8.79;100.00;100705.00;5024214;28;19929;-88
2022/12/15 06:36:30;;;;;;;;;;;;;;;-8.77;100.00;100706.78;5020401;28;19913;-87
2022/12/15 06:38:59;;;;;;;;;;;;;;;-8.80;100.00;100703.25;5014950;28;19921;-87
2022/12/15 06:41:25;;;;;;;;;;;;;;;-8.79;100.00;100704.13;5014033;28;19944;-87
2022/12/15 06:43:56;;;;;;;;;;;;;;;-8.81;100.00;100703.25;5016816;28;20278;-87
2022/12/15 06:46:22;;;;;;;;;;;;;;;-8.82;100.00;100701.47;5013651;28;19945;-88
2022/12/15 06:48:47;;;;;;;;;;;;;;;-8.83;100.00;100698.03;5020584;28;19925;-88
2022/12/15 06:51:13;;;;;;;;;;;;;;;-8.87;100.00;100695.34;5014660;28;20366;-87
2022/12/15 06:53:49;;;;;;;;;;;;;;;-8.91;100.00;100698.66;5032352;28;19929;-86
2022/12/15 06:56:20;;;;;;;;;;;;;;;-8.96;100.00;100705.41;5008054;28;19956;-86
2022/12/15 06:58:49;;;;;;;;;;;;;;;-9.00;100.00;100704.47;5015687;28;19910;-86
2022/12/15 07:01:15;;;;;;;;;;;;;;;-9.02;100.00;100706.16;5014484;28;19920;-87
2022/12/15 07:03:40;;;;;;;;;;;;;;;-9.05;100.00;100711.22;5017453;28;19921;-86
2022/12/15 07:06:07;;;;;;;;;;;;;;;-9.09;100.00;100718.00;5013696;28;20393;-86
2022/12/15 07:08:33;;;;;;;;;;;;;;;-9.11;100.00;100713.63;5017903;28;19981;-86
2022/12/15 07:11:01;;;;;;;;;;;;;;;-9.14;100.00;100711.84;5022218;28;20394;-86
2022/12/15 07:13:26;;;;;;;;;;;;;;;-9.14;100.00;100709.28;5014558;28;20281;-86
2022/12/15 07:15:52;;;;;;;;;;;;;;;-9.14;100.00;100710.97;5014759;28;20023;-85
2022/12/15 07:18:17;;;;;;;;;;;;;;;-9.15;100.00;100712.69;5031141;28;19908;-87
2022/12/15 07:20:43;;;;;;;;;;;;;;;-9.16;100.00;100705.75;5024731;28;19921;-87
2022/12/15 07:23:08;;;;;;;;;;;;;;;-9.15;100.00;100711.81;5023180;28;20366;-87
2022/12/15 07:25:37;;;;;;;;;;;;;;;-9.15;100.00;100710.09;5014611;28;20470;-88
2022/12/15 07:28:03;;;;;;;;;;;;;;;-9.15;100.00;100715.25;5012690;28;19917;-87
2022/12/15 07:30:28;;;;;;;;;;;;;;;-9.17;100.00;100714.34;5013833;28;19921;-87
2022/12/15 07:32:53;;;;;;;;;;;;;;;-9.16;100.00;100720.34;5014365;28;19917;-87
2022/12/15 07:35:18;;;;;;;;;;;;;;;-9.17;100.00;100723.78;5010267;28;19924;-87
2022/12/15 07:37:44;;;;;;;;;;;;;;;-9.17;100.00;100719.50;5012028;28;19913;-88
2022/12/15 07:40:09;;;;;;;;;;;;;;;-9.16;100.00;100720.34;5015494;28;20028;-88
2022/12/15 07:42:34;;;;;;;;;;;;;;;-9.16;100.00;100716.06;5009922;28;20349;-87
2022/12/15 07:45:00;;;;;;;;;;;;;;;-9.13;100.00;100725.59;5006534;28;19983;-88
2022/12/15 07:47:26;;;;;;;;;;;;;;;-9.11;100.00;100724.84;5024503;28;19917;-87
2022/12/15 07:49:52;;;;;;;;;;;;;;;-9.11;100.00;100736.81;5014031;28;19917;-88
2022/12/15 07:52:17;;;;;;;;;;;;;;;-9.09;100.00;100730.00;5015912;28;19968;-86
2022/12/15 07:54:44;;;;;;;;;;;;;;;-9.07;100.00;100739.56;5022344;28;19921;-88
2022/12/15 07:57:09;;;;;;;;;;;;;;;-9.05;100.00;100737.88;5024140;28;19921;-86
2022/12/15 07:59:34;;;;;;;;;;;;;;;-9.05;100.00;100735.28;5029270;28;19931;-88
2022/12/15 08:02:00;;;;;;;;;;;;;;;-9.01;100.00;100745.69;5024441;28;19931;-87
2022/12/15 08:04:25;;;;;;;;;;;;;;;-9.00;100.00;100748.31;5027719;28;19932;-87
2022/12/15 08:06:52;;;;;;;;;;;;;;;-8.99;100.00;100744.88;5025548;28;19915;-88
2022/12/15 08:09:18;;;;;;;;;;;;;;;-8.97;100.00;100753.56;5015391;28;19928;-88
2022/12/15 08:11:43;;;;;;;;;;;;;;;-8.93;100.00;100751.94;5007604;28;19918;-88
2022/12/15 08:14:08;;;;;;;;;;;;;;;-8.92;100.00;100751.09;5015560;28;20534;-87
2022/12/15 08:16:35;;;;;;;;;;;;;;;-8.91;100.00;100752.81;5021657;28;20513;-89
2022/12/15 08:19:00;;;;;;;;;;;;;;;-8.88;100.00;100752.91;5018926;28;19984;-88
2022/12/15 08:21:25;;;;;;;;;;;;;;;-8.86;100.00;100749.56;5017228;28;19944;-87
2022/12/15 08:23:51;;;;;;;;;;;;;;;-8.82;100.00;100750.47;5016317;28;19914;-87
2022/12/15 08:26:16;;;;;;;;;;;;;;;-8.80;100.00;100748.81;5021824;28;19909;-87
2022/12/15 08:28:42;;;;;;;;;;;;;;;-8.77;100.00;100743.75;5027376;28;19936;-86
2022/12/15 08:31:12;;;;;;;;;;;;;;;-8.72;100.00;100744.75;5023254;28;19948;-88
2022/12/15 08:33:38;;;;;;;;;;;;;;;-8.71;100.00;100741.31;5016586;28;20500;-87
2022/12/15 08:36:05;;;;;;;;;;;;;;;-8.70;100.00;100737.91;5015381;28;20358;-86
2022/12/15 08:38:31;;;;;;;;;;;;;;;-8.66;100.00;100731.97;5019775;28;20008;-87
2022/12/15 08:40:56;;;;;;;;;;;;;;;-8.64;100.00;100735.50;5013187;28;20266;-86
2022/12/15 08:43:22;;;;;;;;;;;;;;;-8.60;100.00;100750.22;5015957;28;19979;-88
2022/12/15 08:45:47;;;;;;;;;;;;;;;-8.56;100.00;100753.75;5016577;28;19917;-88
2022/12/15 08:48:12;;;;;;;;;;;;;;;-8.53;100.00;100756.38;5016077;28;19921;-88
2022/12/15 08:50:41;;;;;;;;;;;;;;;-8.48;100.00;100753.91;5008536;28;19905;-89
2022/12/15 08:53:08;;;;;;;;;;;;;;;-8.41;100.00;100763.56;5022195;28;19975;-88
2022/12/15 08:55:33;;;;;;;;;;;;;;;-8.35;100.00;100761.97;5017484;28;20548;-86
2022/12/15 08:57:58;;;;;;;;;;;;;;;-8.28;100.00;100770.72;5016947;28;19968;-86
2022/12/15 09:00:23;;;;;;;;;;;;;;;-8.23;100.00;100778.56;5016266;28;19923;-87
2022/12/15 09:02:49;;;;;;;;;;;;;;;-8.21;100.00;100777.78;5015864;28;19926;-87
2022/12/15 09:05:14;;;;;;;;;;;;;;;-8.19;100.00;100777.81;5018551;28;20344;-87
2022/12/15 09:07:39;;;;;;;;;;;;;;;-8.17;100.00;100792.53;5013263;28;19917;-87
2022/12/15 09:10:04;;;;;;;;;;;;;;;-8.15;100.00;100785.69;5015460;28;19920;-87
2022/12/15 09:12:30;;;;;;;;;;;;;;;-8.13;100.00;100796.06;5011443;28;19928;-86
2022/12/15 09:14:55;;;;;;;;;;;;;;;-8.08;100.00;100797.91;5012845;28;19916;-87
2022/12/15 09:17:20;;;;;;;;;;;;;;;-8.05;100.00;100797.97;5017793;28;19922;-87
2022/12/15 09:19:45;;;;;;;;;;;;;;;-7.99;100.00;100797.25;5013615;28;19937;-87
2022/12/15 09:22:10;;;;;;;;;;;;;;;-7.95;100.00;100799.06;5016545;28;19971;-86
2022/12/15 09:24:36;;;;;;;;;;;;;;;-7.91;100.00;100794.84;5014934;28;19925;-88
2022/12/15 09:27:02;;;;;;;;;;;;;;;-7.88;100.00;100795.78;5017365;28;19913;-86
2022/12/15 09:29:27;;;;;;;;;;;;;;;-7.85;100.00;100800.16;5007706;28;19952;-86
2022/12/15 09:31:52;;;;;;;;;;;;;;;-7.83;100.00;100803.66;5014011;28;20700;-86
2022/12/15 09:34:17;;;;;;;;;;;;;;;-7.83;100.00;100804.50;5001335;28;20734;-88
2022/12/15 09:36:43;;;;;;;;;;;;;;;-7.81;100.00;100807.16;5015229;28;20030;-86
2022/12/15 09:39:10;;;;;;;;;;;;;;;-7.77;100.00;100816.72;5012177;28;19964;-87
2022/12/15 09:41:36;;;;;;;;;;;;;;;-7.72;100.00;100812.53;5014346;28;19920;-87
2022/12/15 09:44:13;;;;;;;;;;;;;;;-7.67;100.00;100812.63;5013315;28;20012;-86
2022/12/15 09:46:58;;;;;;;;;;;;;;;-7.63;100.00;100823.06;5010308;28;19933;-87
2022/12/15 09:49:23;;;;;;;;;;;;;;;-7.56;100.00;100814.59;5007157;28;20058;-86
2022/12/15 09:51:59;;;;;;;;;;;;;;;-7.49;100.00;100825.06;5010725;28;20239;-86
2022/12/15 09:54:26;;;;;;;;;;;;;;;-7.44;100.00;100823.44;4997067;28;20008;-86
2022/12/15 09:56:54;;;;;;;;;;;;;;;-7.39;100.00;100825.31;5029716;28;20321;-85
2022/12/15 09:59:29;;;;;;;;;;;;;;;-7.33;100.00;100827.16;5037641;28;19933;-87
2022/12/15 10:01:57;;;;;;;;;;;;;;;-7.28;100.00;100826.41;5031213;28;19967;-86
2022/12/15 10:04:37;;;;;;;;;;;;;;;-7.23;100.00;100830.78;5042736;28;19912;-87
2022/12/15 10:07:21;;;;;;;;;;;;;;;-7.17;100.00;100821.47;5037278;28;20124;-87
2022/12/15 10:09:46;;;;;;;;;;;;;;;-7.08;100.00;100821.63;5034378;28;19971;-86
2022/12/15 10:12:39;;;;;;;;;;;;;;;-7.00;100.00;100824.38;5033404;28;19922;-87
2022/12/15 10:15:04;;;;;;;;;;;;;;;-6.91;100.00;100828.88;5028115;28;19928;-86
2022/12/15 10:17:47;;;;;;;;;;;;;;;-6.84;100.00;100830.75;5029448;28;19917;-87
2022/12/15 10:20:21;;;;;;;;;;;;;;;-6.77;100.00;100825.72;5019161;28;19917;-87
2022/12/15 10:22:46;;;;;;;;;;;;;;;-6.70;100.00;100818.91;4994050;28;20188;-86
2022/12/15 10:25:14;;;;;;;;;;;;;;;-6.65;100.00;100826.75;4993595;28;19921;-87
2022/12/15 10:27:42;;;;;;;;;;;;;;;-6.59;100.00;100825.19;5006990;28;20413;-86
2022/12/15 10:30:08;;;;;;;;;;;;;;;-6.54;100.00;100822.66;5009762;28;19962;-87
2022/12/15 10:32:49;;;;;;;;;;;;;;;-6.52;100.00;100824.47;5026346;28;19928;-86
2022/12/15 10:35:16;;;;;;;;;;;;;;;-6.43;100.00;100834.09;5001921;28;19924;-86
2022/12/15 10:37:41;;;;;;;;;;;;;;;-6.38;100.00;100841.94;5010437;28;20311;-86
2022/12/15 10:40:07;;;;;;;;;;;;;;;-6.34;100.00;100838.56;5010524;28;19920;-87
2022/12/15 10:42:43;;;;;;;;;;;;;;;-6.24;100.00;100837.00;5018344;28;19921;-86
2022/12/15 10:45:27;;;;;;;;;;;;;;;-6.15;100.00;100837.16;5019568;28;19964;-87
2022/12/15 10:48:02;;;;;;;;;;;;;;;-6.09;100.00;100842.44;5003305;28;19920;-86
2022/12/15 10:50:28;;;;;;;;;;;;;;;-6.07;100.00;100840.75;5008863;28;19988;-88
2022/12/15 10:52:53;;;;;;;;;;;;;;;-6.05;100.00;100839.94;5010662;28;20000;-89
2022/12/15 10:55:30;;;;;;;;;;;;;;;-6.03;100.00;100834.75;5011237;28;19927;-88
2022/12/15 10:57:59;;;;;;;;;;;;;;;-6.03;100.00;100842.53;5024554;28;19931;-87
2022/12/15 11:00:27;;;;;;;;;;;;;;;-6.01;100.00;100838.28;5014005;28;20343;-87
2022/12/15 11:02:53;;;;;;;;;;;;;;;-5.97;100.00;100834.00;5008365;28;19924;-86
2022/12/15 11:05:18;;;;;;;;;;;;;;;-5.88;100.00;100834.13;5005605;28;19910;-88
2022/12/15 11:07:52;;;;;;;;;;;;;;;-5.85;100.00;100826.38;5006651;28;19909;-87
2022/12/15 11:10:23;;;;;;;;;;;;;;;-5.81;100.00;100835.94;5007966;28;19921;-87
2022/12/15 11:13:07;;;;;;;;;;;;;;;-5.73;100.00;100825.69;5011544;28;19917;-87
2022/12/15 11:15:36;;;;;;;;;;;;;;;-5.64;100.00;100834.50;5009794;28;19928;-87
2022/12/15 11:18:10;;;;;;;;;;;;;;;-5.58;100.00;100825.94;5014859;28;19924;-88
2022/12/15 11:20:49;;;;;;;;;;;;;;;-5.54;100.00;100825.97;5006945;28;19916;-88
2022/12/15 11:23:17;;;;;;;;;;;;;;;-5.46;100.00;100818.31;5006716;28;20289;-87
2022/12/15 11:25:47;;;;;;;;;;;;;;;-5.39;100.00;100821.84;5006704;28;19935;-88
2022/12/15 11:28:21;;;;;;;;;;;;;;;-5.34;100.00;100825.41;5022361;28;19928;-87
2022/12/15 11:30:49;;;;;;;;;;;;;;;-5.27;100.00;100828.09;5030128;28;20012;-88
2022/12/15 11:33:15;;;;;;;;;;;;;;;-5.18;100.00;100819.56;5029830;28;19928;-87
2022/12/15 11:35:59;;;;;;;;;;;;;;;-5.15;100.00;100822.16;5011585;28;19909;-87
2022/12/15 11:38:30;;;;;;;;;;;;;;;-5.17;100.00;100823.91;5008616;28;20239;-89
2022/12/15 11:40:57;;;;;;;;;;;;;;;-5.13;100.00;100823.06;5018608;28;19996;-90
2022/12/15 11:43:28;;;;;;;;;;;;;;;-5.12;100.00;100827.41;5009990;28;19913;-88
2022/12/15 11:46:17;;;;;;;;;;;;;;;-5.12;100.00;100822.22;4994578;28;20435;-89
2022/12/15 11:48:45;;;;;;;;;;;;;;;-5.08;100.00;100815.34;5001665;28;19909;-88
2022/12/15 11:51:16;;;;;;;;;;;;;;;-5.04;100.00;100815.41;5010740;28;20086;-88
2022/12/15 11:54:00;;;;;;;;;;;;;;;-5.01;100.00;100812.84;5010078;28;20374;-89
2022/12/15 11:56:31;;;;;;;;;;;;;;;-4.96;100.00;100805.13;5009620;28;20391;-88
2022/12/15 11:59:16;;;;;;;;;;;;;;;-4.84;100.00;100804.38;5008970;28;19913;-85
2022/12/15 12:02:00;;;;;;;;;;;;;;;-4.81;100.00;100801.81;5008463;28;19913;-88
2022/12/15 12:04:28;;;;;;;;;;;;;;;-4.78;100.00;100799.25;5014466;28;20019;-88
2022/12/15 12:07:12;;;;;;;;;;;;;;;-4.73;100.00;100796.69;5017981;28;19917;-88
2022/12/15 12:09:55;;;;;;;;;;;;;;;-4.66;100.00;100794.19;5031898;28;20523;-89
2022/12/15 12:12:32;;;;;;;;;;;;;;;-4.57;100.00;100790.81;5015049;28;19905;-89
2022/12/15 12:15:27;;;;;;;;;;;;;;;-4.55;100.00;100787.38;4994729;28;19929;-89
2022/12/15 12:17:55;;;;;;;;;;;;;;;-4.54;100.00;100793.44;4973605;28;20782;-89
2022/12/15 12:20:22;;;;;;;;;;;;;;;-4.49;100.00;100794.34;5001447;28;19917;-91
2022/12/15 12:22:53;;;;;;;;;;;;;;;-4.39;100.00;100785.81;5001645;28;19906;-90
2022/12/15 12:25:23;;;;;;;;;;;;;;;-4.31;100.00;100789.31;5002274;28;19976;-90
2022/12/15 12:27:54;;;;;;;;;;;;;;;-4.24;100.00;100786.78;5008994;28;19925;-89
2022/12/15 12:30:20;;;;;;;;;;;;;;;-4.19;100.00;100787.69;5016167;28;19913;-90
2022/12/15 12:33:01;;;;;;;;;;;;;;;-4.17;100.00;100779.06;5014035;28;19968;-88
2022/12/15 12:35:29;;;;;;;;;;;;;;;-4.13;100.00;100775.63;5005888;28;19984;-89
2022/12/15 12:37:57;;;;;;;;;;;;;;;-4.11;100.00;100771.28;4992251;28;19914;-90
2022/12/15 12:40:25;;;;;;;;;;;;;;;-4.11;100.00;100767.81;4995733;28;19964;-90
2022/12/15 12:42:53;;;;;;;;;;;;;;;-4.09;100.00;100769.59;4992458;28;19917;-90
2022/12/15 12:45:19;;;;;;;;;;;;;;;-4.05;100.00;100771.34;4996426;28;20020;-90
2022/12/15 12:47:49;;;;;;;;;;;;;;;-3.95;100.00;100763.59;4989935;28;19902;-90
2022/12/15 12:50:25;;;;;;;;;;;;;;;-3.86;100.00;100769.72;4989194;28;20052;-91
2022/12/15 12:52:57;;;;;;;;;;;;;;;-3.78;100.00;100762.84;4988243;28;20028;-90
2022/12/15 12:55:28;;;;;;;;;;;;;;;-3.79;100.00;100761.13;5010430;28;20401;-91
2022/12/15 12:57:54;;;;;;;;;;;;;;;-3.77;100.00;100754.19;5014730;28;19925;-89
2022/12/15 13:00:20;;;;;;;;;;;;;;;-3.80;100.00;100751.59;5012810;28;19916;-88
2022/12/15 13:03:05;;;;;;;;;;;;;;;-3.76;100.00;100747.28;5014776;28;20016;-90
2022/12/15 13:05:32;;;;;;;;;;;;;;;-3.73;100.00;100742.06;5011352;28;19917;-89
2022/12/15 13:08:07;;;;;;;;;;;;;;;-3.73;100.00;100743.81;5021129;28;19913;-90
2022/12/15 13:10:35;;;;;;;;;;;;;;;-3.77;100.00;100742.91;5015976;28;19945;-90
2022/12/15 13:13:19;;;;;;;;;;;;;;;-3.71;100.00;100739.50;5010404;28;19932;-89
2022/12/15 13:15:48;;;;;;;;;;;;;;;-3.64;100.00;100739.50;5000989;28;20424;-88
2022/12/15 13:18:17;;;;;;;;;;;;;;;-3.60;100.00;100743.88;5016171;28;19908;-88
2022/12/15 13:20:43;;;;;;;;;;;;;;;-3.53;100.00;100739.56;5021149;28;19960;-88
2022/12/15 13:23:15;;;;;;;;;;;;;;;-3.45;100.00;100739.63;5018013;28;19929;-91
2022/12/15 13:25:41;;;;;;;;;;;;;;;-3.42;100.00;100732.69;5008577;28;19902;-90
2022/12/15 13:28:29;;;;;;;;;;;;;;;-3.45;100.00;100731.81;5016767;28;19949;-90
2022/12/15 13:31:10;;;;;;;;;;;;;;;-3.46;100.00;100727.47;5044281;28;19909;-89
2022/12/15 13:33:43;;;;;;;;;;;;;;;-3.45;100.00;100731.81;5016395;28;19921;-91
2022/12/15 13:36:08;;;;;;;;;;;;;;;-3.41;100.00;100726.63;5015105;28;19906;-89
2022/12/15 13:38:53;;;;;;;;;;;;;;;-3.34;100.00;100727.53;5014103;28;19928;-90
2022/12/15 13:41:22;;;;;;;;;;;;;;;-3.28;100.00;100724.94;5008635;28;19925;-90
2022/12/15 13:43:50;;;;;;;;;;;;;;;-3.26;100.00;100723.19;5007206;28;19917;-89
2022/12/15 13:46:19;;;;;;;;;;;;;;;-3.24;100.00;100715.41;5005367;28;20043;-88
2022/12/15 13:48:46;;;;;;;;;;;;;;;-3.22;100.00;100721.47;5012866;28;19929;-90
2022/12/15 13:51:11;;;;;;;;;;;;;;;-3.21;100.00;100715.44;5013326;28;19922;-90
2022/12/15 13:53:42;;;;;;;;;;;;;;;-3.23;100.00;100712.81;5006034;28;20399;-91
2022/12/15 13:56:10;;;;;;;;;;;;;;;-3.28;100.00;100714.53;5006436;28;19929;-89
2022/12/15 13:58:59;;;;;;;;;;;;;;;-3.28;100.00;100714.53;5015247;28;19965;-90
2022/12/15 14:01:28;;;;;;;;;;;;;;;-3.23;100.00;100709.34;5005564;28;19921;-90
2022/12/15 14:03:58;;;;;;;;;;;;;;;-3.22;100.00;100705.84;5025140;28;19928;-91
2022/12/15 14:06:26;;;;;;;;;;;;;;;-3.20;100.00;100698.94;5016457;28;19933;-90
2022/12/15 14:08:51;;;;;;;;;;;;;;;-3.19;100.00;100703.28;5009259;28;19928;-89
2022/12/15 14:11:21;;;;;;;;;;;;;;;-3.12;100.00;100699.84;5006437;28;20366;-89
2022/12/15 14:13:46;;;;;;;;;;;;;;;-3.05;100.00;100691.19;5011678;28;19968;-91
2022/12/15 14:16:17;;;;;;;;;;;;;;;-2.99;100.00;100700.72;5010136;28;19988;-90
2022/12/15 14:18:43;;;;;;;;;;;;;;;-2.91;100.00;100693.81;5010288;28;19916;-90
2022/12/15 14:21:19;;;;;;;;;;;;;;;-2.81;100.00;100692.94;5012692;28;19925;-89
2022/12/15 14:23:44;;;;;;;;;;;;;;;-2.77;100.00;100700.75;5011301;28;19941;-89
2022/12/15 14:26:11;;;;;;;;;;;;;;;-2.78;100.00;100698.16;5014094;28;19925;-90
2022/12/15 14:28:37;;;;;;;;;;;;;;;-2.81;100.00;100692.94;5029683;28;19906;-90
2022/12/15 14:31:04;;;;;;;;;;;;;;;-2.85;100.00;100692.06;5028348;28;19921;-90
2022/12/15 14:33:30;;;;;;;;;;;;;;;-2.83;100.00;100692.06;5034480;28;19921;-90
2022/12/15 14:35:56;;;;;;;;;;;;;;;-2.80;100.00;100681.63;5030985;28;19915;-90
2022/12/15 14:38:36;;;;;;;;;;;;;;;-2.80;100.00;100684.25;5038217;28;19925;-90
2022/12/15 14:41:02;;;;;;;;;;;;;;;-2.92;100.00;100686.88;5019076;28;19920;-91
2022/12/15 14:43:33;;;;;;;;;;;;;;;-3.05;100.00;100684.22;5013643;28;19921;-91
2022/12/15 14:46:07;;;;;;;;;;;;;;;-3.15;100.00;100682.44;5028848;28;19975;-90
2022/12/15 14:48:34;;;;;;;;;;;;;;;-3.22;100.00;100675.50;5008170;28;19922;-92
2022/12/15 14:51:00;;;;;;;;;;;;;;;-3.31;100.00;100678.06;5003157;28;20425;-90
2022/12/15 14:53:29;;;;;;;;;;;;;;;-3.41;100.00;100671.97;5020072;28;19917;-90
2022/12/15 14:55:54;;;;;;;;;;;;;;;-3.51;100.00;100670.22;5018554;28;19917;-90